createdAt,value
2023-03-06T00:01:36.104Z,31.08
2023-03-06T00:04:03.334Z,30.60
2023-03-06T00:06:30.683Z,30.75
2023-03-06T00:08:57.757Z,30.88
2023-03-06T00:11:24.919Z,33.83
2023-03-06T00:13:53.321Z,30.35
2023-03-06T00:16:20.480Z,28.55
2023-03-06T00:18:47.894Z,27.23
2023-03-06T00:21:14.982Z,27.10
2023-03-06T00:23:42.230Z,22.80
2023-03-06T00:26:10.188Z,22.10
2023-03-06T00:28:39.746Z,22.13
2023-03-06T00:31:06.865Z,23.00
2023-03-06T00:33:35.117Z,24.10
2023-03-06T00:36:07.296Z,23.33
2023-03-06T00:38:35.686Z,19.48
2023-03-06T00:41:13.679Z,17.75
2023-03-06T00:43:40.830Z,21.73
2023-03-06T00:46:08.612Z,17.92
2023-03-06T00:48:35.817Z,16.90
2023-03-06T00:51:02.988Z,17.02
2023-03-06T00:53:30.162Z,15.68
2023-03-06T00:55:57.241Z,15.43
2023-03-06T00:58:24.317Z,14.75
2023-03-06T01:00:51.535Z,17.48
2023-03-06T01:03:18.602Z,16.05
2023-03-06T01:05:45.726Z,11.68
2023-03-06T01:08:12.833Z,15.38
2023-03-06T01:10:41.173Z,14.43
2023-03-06T01:13:10.474Z,15.80
2023-03-06T01:15:37.871Z,14.80
2023-03-06T01:18:05.102Z,19.08
2023-03-06T01:20:32.317Z,12.20
2023-03-06T01:22:59.609Z,17.13
2023-03-06T01:25:28.440Z,16.17
2023-03-06T01:27:55.557Z,14.15
2023-03-06T01:30:22.638Z,20.00
2023-03-06T01:32:49.712Z,15.10
2023-03-06T01:35:17.003Z,16.45
2023-03-06T01:37:44.150Z,17.00
2023-03-06T01:40:13.363Z,12.63
2023-03-06T01:42:40.485Z,16.20
2023-03-06T01:45:13.553Z,17.55
2023-03-06T01:47:40.724Z,18.65
2023-03-06T01:50:10.652Z,19.80
2023-03-06T01:52:48.098Z,15.40
2023-03-06T01:55:20.063Z,13.95
2023-03-06T01:57:52.934Z,14.88
2023-03-06T02:00:24.122Z,20.25
2023-03-06T02:03:05.954Z,22.02
2023-03-06T02:05:33.696Z,17.30
2023-03-06T02:08:02.450Z,19.73
2023-03-06T02:10:29.871Z,16.67
2023-03-06T02:12:57.123Z,14.80
2023-03-06T02:15:27.296Z,18.10
2023-03-06T02:17:54.681Z,18.92
2023-03-06T02:20:50.993Z,18.80
2023-03-06T02:25:56.614Z,16.70
2023-03-06T02:28:25.500Z,19.20
2023-03-06T02:30:55.155Z,22.85
2023-03-06T02:33:26.062Z,16.92
2023-03-06T02:36:00.488Z,24.23
2023-03-06T02:38:33.368Z,22.85
2023-03-06T02:41:04.332Z,22.02
2023-03-06T02:43:34.715Z,28.02
2023-03-06T02:46:02.871Z,20.58
2023-03-06T02:48:29.985Z,23.90
2023-03-06T02:50:57.061Z,23.20
2023-03-06T02:53:24.365Z,22.75
2023-03-06T02:55:52.048Z,18.58
2023-03-06T02:58:20.710Z,20.92
2023-03-06T03:00:49.263Z,21.65
2023-03-06T03:03:16.973Z,20.52
2023-03-06T03:05:44.071Z,19.35
2023-03-06T03:08:24.241Z,20.08
2023-03-06T03:10:57.200Z,23.02
2023-03-06T03:13:25.704Z,20.95
2023-03-06T03:16:07.900Z,17.38
2023-03-06T03:18:36.046Z,18.50
2023-03-06T03:21:08.580Z,14.63
2023-03-06T03:23:35.769Z,14.60
2023-03-06T03:26:20.766Z,18.52
2023-03-06T03:28:58.646Z,18.80
2023-03-06T03:31:26.818Z,14.55
2023-03-06T03:33:54.117Z,16.90
2023-03-06T03:36:22.888Z,16.20
2023-03-06T03:38:49.955Z,23.85
2023-03-06T03:41:17.044Z,16.45
2023-03-06T03:43:44.389Z,17.92
2023-03-06T03:46:11.631Z,15.88
2023-03-06T03:48:39.429Z,15.63
2023-03-06T03:51:13.095Z,17.83
2023-03-06T03:53:45.439Z,18.35
2023-03-06T03:56:17.199Z,16.92
2023-03-06T03:58:52.919Z,19.10
2023-03-06T04:01:20.682Z,17.35
2023-03-06T04:03:48.331Z,12.95
2023-03-06T04:06:17.433Z,13.82
2023-03-06T04:08:45.193Z,14.85
2023-03-06T04:11:12.567Z,19.55
2023-03-06T04:13:39.975Z,16.60
2023-03-06T04:16:07.920Z,15.98
2023-03-06T04:18:37.288Z,11.20
2023-03-06T04:21:06.148Z,17.02
2023-03-06T04:23:33.950Z,18.17
2023-03-06T04:26:01.032Z,15.25
2023-03-06T04:28:28.975Z,16.77
2023-03-06T04:30:57.543Z,13.35
2023-03-06T04:33:24.816Z,11.85
2023-03-06T04:35:52.231Z,16.52
2023-03-06T04:38:25.435Z,16.55
2023-03-06T04:40:52.565Z,17.40
2023-03-06T04:43:19.863Z,14.48
2023-03-06T04:45:47.116Z,14.95
2023-03-06T04:48:18.332Z,16.80
2023-03-06T04:50:46.007Z,15.13
2023-03-06T04:53:14.722Z,14.40
2023-03-06T04:55:41.834Z,18.45
2023-03-06T04:58:10.324Z,23.40
2023-03-06T05:00:37.801Z,22.00
2023-03-06T05:03:05.016Z,22.45
2023-03-06T05:05:32.580Z,17.45
2023-03-06T05:07:59.648Z,18.60
2023-03-06T05:10:26.897Z,25.25
2023-03-06T05:12:53.969Z,21.60
2023-03-06T05:15:21.176Z,20.40
2023-03-06T05:17:48.426Z,18.27
2023-03-06T05:20:16.991Z,28.52
2023-03-06T05:22:44.133Z,20.35
2023-03-06T05:25:11.682Z,19.35
2023-03-06T05:27:38.768Z,18.77
2023-03-06T05:30:06.752Z,19.83
2023-03-06T05:32:35.561Z,18.70
2023-03-06T05:35:04.100Z,21.63
2023-03-06T05:37:31.837Z,18.95
2023-03-06T05:39:59.484Z,32.75
2023-03-06T05:42:28.604Z,15.68
2023-03-06T05:44:55.798Z,17.45
2023-03-06T05:47:22.855Z,14.25
2023-03-06T05:49:50.039Z,14.90
2023-03-06T05:52:17.702Z,16.35
2023-03-06T05:54:44.763Z,14.70
2023-03-06T05:57:12.117Z,14.63
2023-03-06T05:59:39.203Z,15.40
2023-03-06T06:02:06.303Z,14.48
2023-03-06T06:04:33.571Z,9.07
2023-03-06T06:07:01.233Z,15.38
2023-03-06T06:09:29.467Z,11.00
2023-03-06T06:11:59.983Z,11.80
2023-03-06T06:14:28.539Z,10.48
2023-03-06T06:16:56.135Z,9.93
2023-03-06T06:19:23.605Z,9.25
2023-03-06T06:21:53.881Z,10.85
2023-03-06T06:24:24.449Z,10.38
2023-03-06T06:26:56.271Z,9.65
2023-03-06T06:29:24.512Z,10.60
2023-03-06T06:31:52.652Z,11.50
2023-03-06T06:34:20.090Z,10.63
2023-03-06T06:36:47.862Z,13.15
2023-03-06T06:39:16.534Z,13.00
2023-03-06T06:41:57.285Z,12.68
2023-03-06T06:44:26.795Z,11.02
2023-03-06T06:49:41.070Z,12.88
2023-03-06T06:52:08.313Z,11.00
2023-03-06T06:54:35.351Z,10.32
2023-03-06T06:57:02.411Z,11.82
2023-03-06T06:59:29.513Z,12.32
2023-03-06T07:01:56.674Z,11.73
2023-03-06T07:04:23.764Z,12.52
2023-03-06T07:06:50.858Z,16.58
2023-03-06T07:09:18.026Z,14.05
2023-03-06T07:11:45.101Z,16.02
2023-03-06T07:14:12.193Z,16.83
2023-03-06T07:16:39.882Z,14.85
2023-03-06T07:19:07.567Z,18.48
2023-03-06T07:21:35.076Z,23.80
2023-03-06T07:24:02.320Z,15.40
2023-03-06T07:26:32.682Z,23.08
2023-03-06T07:29:01.212Z,10.30
2023-03-06T07:31:28.943Z,11.25
2023-03-06T07:33:56.578Z,9.82
2023-03-06T07:36:24.257Z,9.32
2023-03-06T07:38:51.437Z,9.10
2023-03-06T07:41:21.830Z,12.60
2023-03-06T07:43:49.853Z,10.93
2023-03-06T07:46:17.419Z,9.35
2023-03-06T07:48:44.837Z,9.55
2023-03-06T07:51:17.918Z,10.70
2023-03-06T07:53:45.093Z,9.27
2023-03-06T07:56:13.067Z,8.93
2023-03-06T07:58:43.206Z,17.10
2023-03-06T08:01:15.957Z,18.20
2023-03-06T08:03:43.337Z,14.52
2023-03-06T08:06:13.043Z,7.72
2023-03-06T08:08:42.282Z,6.93
2023-03-06T08:11:11.472Z,13.55
2023-03-06T08:13:39.723Z,7.72
2023-03-06T08:16:07.377Z,12.65
2023-03-06T08:18:34.852Z,11.38
2023-03-06T08:21:07.972Z,10.98
2023-03-06T08:23:35.745Z,10.20
2023-03-06T08:26:06.020Z,11.02
2023-03-06T08:28:33.160Z,10.40
2023-03-06T08:31:20.619Z,13.95
2023-03-06T08:33:48.192Z,12.82
2023-03-06T08:36:15.657Z,10.07
2023-03-06T08:38:42.732Z,10.20
2023-03-06T08:41:10.012Z,9.32
2023-03-06T08:43:37.209Z,16.73
2023-03-06T08:46:04.501Z,13.32
2023-03-06T08:48:31.977Z,8.10
2023-03-06T08:50:59.056Z,6.82
2023-03-06T08:53:41.763Z,8.95
2023-03-06T08:56:22.408Z,8.18
2023-03-06T08:58:50.024Z,11.35
2023-03-06T09:01:20.577Z,9.98
2023-03-06T09:03:47.813Z,9.18
2023-03-06T09:06:15.568Z,8.60
2023-03-06T09:08:44.635Z,7.15
2023-03-06T09:11:15.687Z,8.90
2023-03-06T09:13:43.570Z,6.70
2023-03-06T09:16:11.553Z,7.07
2023-03-06T09:18:39.044Z,8.68
2023-03-06T09:21:07.097Z,8.18
2023-03-06T09:23:35.032Z,6.38
2023-03-06T09:26:02.579Z,9.02
2023-03-06T09:28:29.710Z,5.28
2023-03-06T09:30:56.919Z,9.05
2023-03-06T09:33:24.264Z,10.75
2023-03-06T09:35:56.441Z,13.55
2023-03-06T09:38:26.591Z,8.30
2023-03-06T09:41:02.430Z,8.32
2023-03-06T09:43:35.713Z,7.68
2023-03-06T09:46:36.854Z,8.93
2023-03-06T09:49:23.299Z,8.32
2023-03-06T09:51:53.115Z,8.98
2023-03-06T09:54:33.247Z,9.98
2023-03-06T09:57:00.887Z,11.98
2023-03-06T09:59:28.773Z,8.48
2023-03-06T10:02:10.486Z,17.70
2023-03-06T10:04:51.882Z,17.42
2023-03-06T10:08:12.371Z,11.50
2023-03-06T10:10:56.541Z,15.48
2023-03-06T10:13:50.613Z,14.23
2023-03-06T10:16:23.973Z,12.23
2023-03-06T10:18:51.586Z,10.50
2023-03-06T10:21:58.543Z,13.52
2023-03-06T10:24:46.892Z,12.45
2023-03-06T10:27:34.770Z,16.60
2023-03-06T10:30:39.057Z,12.70
2023-03-06T10:33:42.805Z,9.50
2023-03-06T10:36:18.668Z,9.02
2023-03-06T10:38:48.679Z,9.20
2023-03-06T10:41:23.237Z,11.60
2023-03-06T10:44:05.680Z,12.02
2023-03-06T10:46:35.936Z,10.77
2023-03-06T10:49:22.569Z,12.02
2023-03-06T10:52:13.959Z,14.18
2023-03-06T10:54:43.982Z,11.45
2023-03-06T10:57:30.115Z,12.25
2023-03-06T11:00:05.845Z,10.55
2023-03-06T11:02:41.115Z,12.55
2023-03-06T11:05:20.128Z,15.35
2023-03-06T11:08:01.549Z,11.75
2023-03-06T11:10:30.593Z,11.43
2023-03-06T11:13:06.338Z,14.38
2023-03-06T11:15:34.195Z,15.20
2023-03-06T11:18:05.055Z,12.43
2023-03-06T11:20:51.116Z,18.75
2023-03-06T11:23:39.553Z,10.65
2023-03-06T11:26:15.764Z,13.35
2023-03-06T11:28:46.300Z,15.57
2023-03-06T11:31:18.908Z,13.23
2023-03-06T11:33:51.675Z,12.00
2023-03-06T11:36:30.524Z,14.13
2023-03-06T11:38:57.652Z,10.35
2023-03-06T11:41:51.606Z,12.52
2023-03-06T11:44:43.811Z,14.38
2023-03-06T11:47:23.105Z,14.80
2023-03-06T11:50:10.242Z,11.43
2023-03-06T11:52:58.168Z,13.98
2023-03-06T11:55:39.507Z,12.20
2023-03-06T11:58:32.422Z,11.25
2023-03-06T12:01:08.796Z,19.35
2023-03-06T12:04:08.152Z,16.05
2023-03-06T12:07:09.545Z,11.55
2023-03-06T12:09:39.328Z,14.50
2023-03-06T12:12:34.259Z,12.02
2023-03-06T12:15:29.852Z,11.73
2023-03-06T12:18:31.054Z,12.20
2023-03-06T12:21:07.386Z,15.20
2023-03-06T12:23:49.986Z,16.55
2023-03-06T12:26:41.667Z,14.93
2023-03-06T12:29:33.753Z,8.95
2023-03-06T12:32:21.376Z,14.77
2023-03-06T12:35:19.262Z,17.75
2023-03-06T12:38:04.359Z,13.63
2023-03-06T12:40:58.162Z,17.55
2023-03-06T12:43:46.396Z,16.60
2023-03-06T12:46:17.161Z,17.08
2023-03-06T12:48:48.906Z,13.70
2023-03-06T12:51:20.671Z,13.50
2023-03-06T12:53:49.130Z,13.40
2023-03-06T12:56:18.558Z,10.45
2023-03-06T12:58:52.362Z,14.02
2023-03-06T13:01:38.259Z,13.73
2023-03-06T13:04:26.881Z,13.35
2023-03-06T13:07:31.067Z,12.00
2023-03-06T13:10:27.676Z,19.75
2023-03-06T13:13:24.685Z,15.77
2023-03-06T13:16:03.620Z,14.57
2023-03-06T13:18:33.528Z,12.18
2023-03-06T13:21:00.985Z,17.77
2023-03-06T13:23:34.890Z,13.65
2023-03-06T13:26:26.814Z,12.23
2023-03-06T13:28:57.858Z,13.40
2023-03-06T13:31:34.172Z,9.25
2023-03-06T13:34:03.808Z,17.05
2023-03-06T13:36:39.407Z,14.63
2023-03-06T13:39:11.579Z,8.15
2023-03-06T13:41:53.856Z,6.90
2023-03-06T13:44:23.724Z,21.38
2023-03-06T13:47:19.300Z,7.97
2023-03-06T13:49:49.045Z,11.35
2023-03-06T13:52:30.389Z,38.58
2023-03-06T13:55:06.075Z,15.13
2023-03-06T13:58:08.398Z,15.43
2023-03-06T14:01:07.602Z,9.52
2023-03-06T14:03:52.811Z,5.47
2023-03-06T14:06:35.052Z,17.98
2023-03-06T14:09:57.132Z,9.10
2023-03-06T14:12:36.306Z,13.18
2023-03-06T14:15:17.358Z,9.43
2023-03-06T14:18:07.365Z,10.85
2023-03-06T14:20:46.133Z,20.35
2023-03-06T14:23:23.333Z,7.65
2023-03-06T14:26:05.737Z,9.90
2023-03-06T14:28:35.598Z,11.13
2023-03-06T14:31:06.189Z,12.20
2023-03-06T14:33:45.055Z,7.18
2023-03-06T14:36:15.592Z,15.57
2023-03-06T14:38:57.078Z,7.53
2023-03-06T14:41:30.727Z,8.00
2023-03-06T14:44:21.962Z,8.05
2023-03-06T14:46:55.246Z,9.40
2023-03-06T14:49:24.516Z,14.50
2023-03-06T14:51:54.758Z,12.48
2023-03-06T14:54:27.475Z,14.80
2023-03-06T14:57:01.863Z,9.13
2023-03-06T14:59:33.155Z,5.20
2023-03-06T15:02:05.242Z,8.73
2023-03-06T15:04:44.870Z,11.98
2023-03-06T15:07:16.454Z,7.63
2023-03-06T15:09:53.791Z,25.00
2023-03-06T15:12:21.010Z,10.45
2023-03-06T15:14:56.988Z,8.77
2023-03-06T15:17:39.569Z,11.10
2023-03-06T15:20:27.697Z,9.35
2023-03-06T15:22:54.791Z,12.07
2023-03-06T15:25:31.667Z,9.38
2023-03-06T15:28:04.586Z,8.07
2023-03-06T15:30:34.046Z,10.27
2023-03-06T15:33:19.557Z,13.88
2023-03-06T15:35:57.459Z,21.63
2023-03-06T15:38:35.395Z,19.85
2023-03-06T15:41:05.172Z,13.32
2023-03-06T15:43:39.469Z,28.67
2023-03-06T15:46:08.125Z,20.75
2023-03-06T15:48:35.604Z,18.42
2023-03-06T15:51:03.929Z,17.20
2023-03-06T15:53:31.470Z,21.33
2023-03-06T15:55:59.604Z,26.02
2023-03-06T15:58:29.390Z,26.05
2023-03-06T16:00:56.562Z,23.48
2023-03-06T16:03:23.758Z,27.38
2023-03-06T16:05:50.925Z,28.05
2023-03-06T16:08:17.964Z,19.27
2023-03-06T16:10:47.232Z,28.15
2023-03-06T16:13:21.630Z,22.35
2023-03-06T16:15:50.816Z,28.67
2023-03-06T16:18:18.650Z,28.65
2023-03-06T16:20:45.923Z,21.67
2023-03-06T16:23:13.318Z,29.75
2023-03-06T16:25:43.120Z,24.17
2023-03-06T16:28:15.568Z,27.88
2023-03-06T16:30:44.518Z,28.20
2023-03-06T16:33:12.587Z,41.35
2023-03-06T16:35:41.395Z,23.23
2023-03-06T16:38:10.672Z,31.05
2023-03-06T16:40:41.424Z,28.33
2023-03-06T16:43:10.281Z,28.08
2023-03-06T16:45:39.798Z,28.17
2023-03-06T16:48:07.425Z,27.05
2023-03-06T16:50:38.708Z,31.45
2023-03-06T16:53:06.749Z,32.63
2023-03-06T16:55:34.079Z,29.55
2023-03-06T16:58:01.225Z,28.40
2023-03-06T17:00:32.012Z,31.85
2023-03-06T17:03:00.774Z,23.75
2023-03-06T17:05:29.147Z,24.67
2023-03-06T17:07:56.484Z,26.98
2023-03-06T17:10:26.487Z,21.17
2023-03-06T17:12:54.583Z,35.90
2023-03-06T17:15:21.640Z,32.22
2023-03-06T17:17:48.926Z,33.47
2023-03-06T17:20:16.109Z,34.55
2023-03-06T17:22:43.193Z,31.67
2023-03-06T17:25:11.053Z,36.33
2023-03-06T17:27:38.638Z,46.47
2023-03-06T17:30:06.638Z,36.33
2023-03-06T17:32:34.197Z,51.83
2023-03-06T17:35:01.546Z,41.00
2023-03-06T17:37:28.857Z,35.05
2023-03-06T17:39:56.025Z,38.33
2023-03-06T17:42:23.057Z,36.10
2023-03-06T17:44:51.057Z,33.65
2023-03-06T17:47:18.160Z,35.58
2023-03-06T17:49:45.456Z,34.88
2023-03-06T17:52:12.559Z,30.55
2023-03-06T17:54:39.703Z,31.20
2023-03-06T17:57:06.950Z,29.50
2023-03-06T17:59:34.553Z,36.40
2023-03-06T18:02:02.269Z,35.30
2023-03-06T18:04:30.802Z,37.92
2023-03-06T18:06:58.520Z,29.25
2023-03-06T18:09:25.702Z,37.50
2023-03-06T18:11:52.810Z,46.90
2023-03-06T18:14:19.880Z,38.08
2023-03-06T18:16:47.165Z,60.58
2023-03-06T18:19:14.502Z,45.42
2023-03-06T18:21:41.552Z,49.70
2023-03-06T18:24:11.104Z,39.72
2023-03-06T18:26:38.354Z,38.38
2023-03-06T18:29:05.513Z,43.70
2023-03-06T18:31:35.949Z,43.50
2023-03-06T18:34:06.850Z,49.35
2023-03-06T18:36:35.027Z,45.25
2023-03-06T18:39:03.990Z,39.35
2023-03-06T18:41:31.925Z,45.05
2023-03-06T18:44:00.733Z,42.63
2023-03-06T18:46:38.330Z,45.45
2023-03-06T18:49:06.404Z,36.13
2023-03-06T18:51:34.134Z,35.88
2023-03-06T18:54:02.779Z,38.20
2023-03-06T18:56:30.914Z,34.33
2023-03-06T18:59:02.722Z,52.95
2023-03-06T19:01:31.412Z,33.85
2023-03-06T19:04:03.419Z,28.67
2023-03-06T19:06:31.246Z,31.95
2023-03-06T19:08:58.972Z,34.17
2023-03-06T19:11:27.160Z,38.47
2023-03-06T19:13:54.855Z,40.90
2023-03-06T19:16:25.903Z,43.38
2023-03-06T19:18:55.700Z,48.28
2023-03-06T19:21:24.974Z,46.22
2023-03-06T19:23:52.262Z,38.50
2023-03-06T19:26:20.303Z,39.05
2023-03-06T19:28:48.216Z,41.58
2023-03-06T19:31:21.154Z,40.88
2023-03-06T19:33:49.491Z,46.63
2023-03-06T19:36:18.556Z,46.50
2023-03-06T19:38:50.411Z,42.60
2023-03-06T19:41:17.961Z,41.40
2023-03-06T19:43:49.490Z,39.45
2023-03-06T19:46:16.614Z,30.98
2023-03-06T19:48:43.916Z,37.25
2023-03-06T19:51:11.305Z,33.42
2023-03-06T19:53:41.555Z,31.75
2023-03-06T19:56:20.752Z,29.52
2023-03-06T19:58:48.105Z,27.65
2023-03-06T20:01:18.898Z,29.95
2023-03-06T20:03:46.163Z,26.85
2023-03-06T20:06:16.442Z,29.83
2023-03-06T20:08:44.772Z,25.10
2023-03-06T20:11:19.575Z,25.58
2023-03-06T20:13:47.757Z,35.03
2023-03-06T20:16:16.096Z,28.70
2023-03-06T20:18:43.595Z,37.28
2023-03-06T20:21:11.042Z,26.13
2023-03-06T20:23:38.282Z,29.25
2023-03-06T20:26:16.036Z,32.70
2023-03-06T20:28:43.451Z,29.63
2023-03-06T20:31:13.657Z,43.88
2023-03-06T20:33:40.799Z,35.33
2023-03-06T20:36:20.437Z,36.47
2023-03-06T20:38:47.615Z,34.08
2023-03-06T20:41:23.089Z,30.05
2023-03-06T20:46:17.916Z,32.60
2023-03-06T20:48:49.071Z,24.55
2023-03-06T20:51:20.844Z,26.75
2023-03-06T20:53:49.400Z,31.48
2023-03-06T20:56:18.862Z,28.80
2023-03-06T20:58:46.087Z,21.10
2023-03-06T21:01:24.426Z,19.40
2023-03-06T21:03:52.304Z,25.70
2023-03-06T21:06:20.441Z,19.55
2023-03-06T21:08:47.986Z,29.17
2023-03-06T21:11:15.527Z,29.90
2023-03-06T21:13:42.891Z,40.67
2023-03-06T21:16:13.953Z,46.72
2023-03-06T21:18:41.153Z,49.92
2023-03-06T21:21:10.618Z,45.28
2023-03-06T21:23:38.317Z,37.67
2023-03-06T21:26:06.157Z,45.72
2023-03-06T21:28:34.262Z,35.58
2023-03-06T21:31:02.140Z,32.35
2023-03-06T21:33:29.343Z,27.73
2023-03-06T21:35:56.490Z,17.73
2023-03-06T21:38:23.729Z,21.52
2023-03-06T21:40:50.869Z,20.52
2023-03-06T21:43:17.892Z,24.33
2023-03-06T21:45:46.532Z,25.70
2023-03-06T21:48:14.779Z,24.35
2023-03-06T21:50:42.559Z,24.67
2023-03-06T21:53:10.010Z,24.85
2023-03-06T21:55:41.006Z,26.00
2023-03-06T21:58:08.607Z,29.05
2023-03-06T22:00:36.687Z,23.23
2023-03-06T22:03:05.058Z,25.92
2023-03-06T22:05:32.268Z,20.50
2023-03-06T22:07:59.660Z,27.35
2023-03-06T22:10:26.773Z,24.98
2023-03-06T22:12:53.838Z,33.65
2023-03-06T22:15:21.954Z,25.30
2023-03-06T22:17:49.120Z,25.50
2023-03-06T22:20:16.317Z,29.35
2023-03-06T22:22:44.048Z,27.00
2023-03-06T22:25:12.003Z,33.03
2023-03-06T22:27:39.100Z,30.60
2023-03-06T22:30:06.900Z,31.95
2023-03-06T22:32:34.070Z,33.45
2023-03-06T22:35:01.228Z,29.35
2023-03-06T22:37:28.324Z,35.72
2023-03-06T22:39:56.307Z,28.83
2023-03-06T22:42:23.452Z,32.20
2023-03-06T22:44:50.490Z,30.50
2023-03-06T22:47:17.522Z,24.02
2023-03-06T22:49:44.564Z,31.75
2023-03-06T22:52:12.916Z,26.33
2023-03-06T22:54:41.409Z,27.73
2023-03-06T22:57:08.497Z,24.90
2023-03-06T22:59:35.519Z,28.40
2023-03-06T23:02:03.835Z,49.20
2023-03-06T23:04:30.978Z,26.83
2023-03-06T23:06:58.236Z,42.25
2023-03-06T23:09:25.685Z,43.38
2023-03-06T23:12:12.120Z,48.55
2023-03-06T23:14:57.636Z,42.80
2023-03-06T23:20:28.742Z,35.25
2023-03-06T23:25:41.831Z,31.92
2023-03-06T23:28:08.968Z,31.60
2023-03-06T23:30:39.126Z,33.72
2023-03-06T23:33:06.649Z,33.17
2023-03-06T23:35:34.975Z,29.75
2023-03-06T23:38:02.617Z,32.90
2023-03-06T23:40:31.890Z,30.08
2023-03-06T23:42:58.942Z,32.05
2023-03-06T23:45:27.464Z,34.13
2023-03-06T23:47:54.527Z,29.52
2023-03-06T23:50:23.109Z,34.63
2023-03-06T23:52:54.324Z,31.65
2023-03-06T23:55:22.033Z,34.08
2023-03-06T23:57:49.100Z,36.90
